sensor_id;sensor_type;location;lat;lon;timestamp;P1;durP1;ratioP1;P2;durP2;ratioP2
2602;SDS011;1311;47.966;7.958;2023-04-15T00:00:06;2.33;;;0.87;;
2602;SDS011;1311;47.966;7.958;2023-04-15T00:02:34;2.10;;;1.07;;
2602;SDS011;1311;47.966;7.958;2023-04-15T00:05:04;3.13;;;1.00;;
2602;SDS011;1311;47.966;7.958;2023-04-15T00:07:31;0.80;;;0.80;;
2602;SDS011;1311;47.966;7.958;2023-04-15T00:09:58;1.40;;;1.10;;
2602;SDS011;1311;47.966;7.958;2023-04-15T00:12:25;2.53;;;0.83;;
2602;SDS011;1311;47.966;7.958;2023-04-15T00:14:53;3.47;;;1.07;;
2602;SDS011;1311;47.966;7.958;2023-04-15T00:17:21;1.83;;;1.00;;
2602;SDS011;1311;47.966;7.958;2023-04-15T00:19:48;2.00;;;1.00;;
2602;SDS011;1311;47.966;7.958;2023-04-15T00:22:16;3.90;;;1.33;;
2602;SDS011;1311;47.966;7.958;2023-04-15T00:24:43;0.97;;;0.93;;
2602;SDS011;1311;47.966;7.958;2023-04-15T00:27:09;2.93;;;0.93;;
2602;SDS011;1311;47.966;7.958;2023-04-15T00:29:36;1.67;;;1.23;;
2602;SDS011;1311;47.966;7.958;2023-04-15T00:32:03;0.80;;;0.80;;
2602;SDS011;1311;47.966;7.958;2023-04-15T00:34:30;1.97;;;0.87;;
2602;SDS011;1311;47.966;7.958;2023-04-15T00:36:57;1.40;;;0.83;;
2602;SDS011;1311;47.966;7.958;2023-04-15T00:39:25;2.53;;;0.97;;
2602;SDS011;1311;47.966;7.958;2023-04-15T00:41:53;0.80;;;0.80;;
2602;SDS011;1311;47.966;7.958;2023-04-15T00:44:21;1.03;;;0.50;;
2602;SDS011;1311;47.966;7.958;2023-04-15T00:46:48;0.80;;;0.70;;
2602;SDS011;1311;47.966;7.958;2023-04-15T00:49:17;1.43;;;0.83;;
2602;SDS011;1311;47.966;7.958;2023-04-15T00:51:44;1.63;;;0.80;;
2602;SDS011;1311;47.966;7.958;2023-04-15T00:54:11;2.13;;;0.97;;
2602;SDS011;1311;47.966;7.958;2023-04-15T00:56:39;4.23;;;1.70;;
2602;SDS011;1311;47.966;7.958;2023-04-15T00:59:06;5.30;;;1.37;;
2602;SDS011;1311;47.966;7.958;2023-04-15T01:01:34;1.67;;;0.90;;
2602;SDS011;1311;47.966;7.958;2023-04-15T01:04:01;2.57;;;1.20;;
2602;SDS011;1311;47.966;7.958;2023-04-15T01:06:28;1.57;;;0.90;;
2602;SDS011;1311;47.966;7.958;2023-04-15T01:08:56;2.63;;;1.13;;
2602;SDS011;1311;47.966;7.958;2023-04-15T01:11:23;1.70;;;1.27;;
2602;SDS011;1311;47.966;7.958;2023-04-15T01:13:52;3.73;;;1.50;;
2602;SDS011;1311;47.966;7.958;2023-04-15T01:16:20;5.07;;;1.20;;
2602;SDS011;1311;47.966;7.958;2023-04-15T01:18:47;2.10;;;1.03;;
2602;SDS011;1311;47.966;7.958;2023-04-15T01:21:14;3.23;;;1.37;;
2602;SDS011;1311;47.966;7.958;2023-04-15T01:23:41;3.40;;;1.17;;
2602;SDS011;1311;47.966;7.958;2023-04-15T01:26:13;5.57;;;1.27;;
2602;SDS011;1311;47.966;7.958;2023-04-15T01:28:41;2.13;;;1.00;;
2602;SDS011;1311;47.966;7.958;2023-04-15T01:31:08;5.20;;;1.27;;
2602;SDS011;1311;47.966;7.958;2023-04-15T01:33:37;1.10;;;0.93;;
2602;SDS011;1311;47.966;7.958;2023-04-15T01:36:05;1.70;;;1.17;;
2602;SDS011;1311;47.966;7.958;2023-04-15T01:38:34;2.43;;;1.07;;
2602;SDS011;1311;47.966;7.958;2023-04-15T01:41:01;1.07;;;0.87;;
2602;SDS011;1311;47.966;7.958;2023-04-15T01:43:30;2.60;;;1.10;;
2602;SDS011;1311;47.966;7.958;2023-04-15T01:45:57;3.90;;;0.97;;
2602;SDS011;1311;47.966;7.958;2023-04-15T01:48:23;1.73;;;1.03;;
2602;SDS011;1311;47.966;7.958;2023-04-15T01:50:51;0.90;;;0.80;;
2602;SDS011;1311;47.966;7.958;2023-04-15T01:53:21;2.17;;;1.10;;
2602;SDS011;1311;47.966;7.958;2023-04-15T01:55:48;2.57;;;0.90;;
2602;SDS011;1311;47.966;7.958;2023-04-15T01:58:14;0.77;;;0.77;;
2602;SDS011;1311;47.966;7.958;2023-04-15T02:00:42;0.93;;;0.83;;
2602;SDS011;1311;47.966;7.958;2023-04-15T02:03:09;0.97;;;0.90;;
2602;SDS011;1311;47.966;7.958;2023-04-15T02:05:36;2.60;;;1.13;;
2602;SDS011;1311;47.966;7.958;2023-04-15T02:08:03;1.00;;;0.80;;
2602;SDS011;1311;47.966;7.958;2023-04-15T02:10:30;1.10;;;0.73;;
2602;SDS011;1311;47.966;7.958;2023-04-15T02:12:56;0.83;;;0.60;;
2602;SDS011;1311;47.966;7.958;2023-04-15T02:15:23;1.33;;;0.90;;
2602;SDS011;1311;47.966;7.958;2023-04-15T02:17:51;1.43;;;1.00;;
2602;SDS011;1311;47.966;7.958;2023-04-15T02:20:19;1.83;;;0.90;;
2602;SDS011;1311;47.966;7.958;2023-04-15T02:22:46;0.90;;;0.90;;
2602;SDS011;1311;47.966;7.958;2023-04-15T02:25:13;2.30;;;0.90;;
2602;SDS011;1311;47.966;7.958;2023-04-15T02:27:40;2.87;;;1.00;;
2602;SDS011;1311;47.966;7.958;2023-04-15T02:30:07;1.27;;;0.77;;
2602;SDS011;1311;47.966;7.958;2023-04-15T02:32:35;2.63;;;0.90;;
2602;SDS011;1311;47.966;7.958;2023-04-15T02:35:04;2.73;;;1.53;;
2602;SDS011;1311;47.966;7.958;2023-04-15T02:37:31;7.67;;;1.40;;
2602;SDS011;1311;47.966;7.958;2023-04-15T02:40:05;1.00;;;0.90;;
2602;SDS011;1311;47.966;7.958;2023-04-15T02:42:33;2.27;;;1.20;;
2602;SDS011;1311;47.966;7.958;2023-04-15T02:45:00;4.60;;;1.23;;
2602;SDS011;1311;47.966;7.958;2023-04-15T02:47:27;1.70;;;1.10;;
2602;SDS011;1311;47.966;7.958;2023-04-15T02:49:53;1.67;;;1.53;;
2602;SDS011;1311;47.966;7.958;2023-04-15T02:52:23;1.50;;;1.40;;
2602;SDS011;1311;47.966;7.958;2023-04-15T02:54:50;2.17;;;1.63;;
2602;SDS011;1311;47.966;7.958;2023-04-15T02:57:17;3.37;;;2.10;;
2602;SDS011;1311;47.966;7.958;2023-04-15T02:59:44;1.87;;;1.77;;
2602;SDS011;1311;47.966;7.958;2023-04-15T03:02:11;2.83;;;1.80;;
2602;SDS011;1311;47.966;7.958;2023-04-15T03:04:37;1.43;;;1.33;;
2602;SDS011;1311;47.966;7.958;2023-04-15T03:07:04;2.97;;;1.70;;
2602;SDS011;1311;47.966;7.958;2023-04-15T03:09:32;3.00;;;1.50;;
2602;SDS011;1311;47.966;7.958;2023-04-15T03:12:00;3.00;;;1.13;;
2602;SDS011;1311;47.966;7.958;2023-04-15T03:14:27;2.07;;;1.03;;
2602;SDS011;1311;47.966;7.958;2023-04-15T03:16:53;1.03;;;0.90;;
2602;SDS011;1311;47.966;7.958;2023-04-15T03:19:20;1.00;;;0.70;;
2602;SDS011;1311;47.966;7.958;2023-04-15T03:21:47;1.63;;;0.90;;
2602;SDS011;1311;47.966;7.958;2023-04-15T03:24:14;1.63;;;0.90;;
2602;SDS011;1311;47.966;7.958;2023-04-15T03:26:42;1.10;;;1.00;;
2602;SDS011;1311;47.966;7.958;2023-04-15T03:29:09;1.53;;;0.80;;
2602;SDS011;1311;47.966;7.958;2023-04-15T03:31:35;3.07;;;0.83;;
2602;SDS011;1311;47.966;7.958;2023-04-15T03:34:02;1.13;;;1.07;;
2602;SDS011;1311;47.966;7.958;2023-04-15T03:36:29;3.50;;;1.20;;
2602;SDS011;1311;47.966;7.958;2023-04-15T03:38:57;2.03;;;1.10;;
2602;SDS011;1311;47.966;7.958;2023-04-15T03:41:23;1.57;;;1.13;;
2602;SDS011;1311;47.966;7.958;2023-04-15T03:43:52;3.03;;;1.40;;
2602;SDS011;1311;47.966;7.958;2023-04-15T03:46:18;3.27;;;1.50;;
2602;SDS011;1311;47.966;7.958;2023-04-15T03:48:45;1.73;;;0.90;;
2602;SDS011;1311;47.966;7.958;2023-04-15T03:51:12;1.10;;;1.00;;
2602;SDS011;1311;47.966;7.958;2023-04-15T03:53:39;1.47;;;0.90;;
2602;SDS011;1311;47.966;7.958;2023-04-15T03:56:06;2.97;;;1.03;;
2602;SDS011;1311;47.966;7.958;2023-04-15T03:58:33;2.77;;;1.10;;
2602;SDS011;1311;47.966;7.958;2023-04-15T04:01:01;1.40;;;0.90;;
2602;SDS011;1311;47.966;7.958;2023-04-15T04:03:27;1.20;;;1.00;;
2602;SDS011;1311;47.966;7.958;2023-04-15T04:05:54;5.23;;;1.00;;
2602;SDS011;1311;47.966;7.958;2023-04-15T04:08:21;1.20;;;1.10;;
2602;SDS011;1311;47.966;7.958;2023-04-15T04:10:48;1.60;;;1.27;;
2602;SDS011;1311;47.966;7.958;2023-04-15T04:13:15;1.37;;;0.87;;
2602;SDS011;1311;47.966;7.958;2023-04-15T04:15:41;1.63;;;1.07;;
2602;SDS011;1311;47.966;7.958;2023-04-15T04:18:09;2.00;;;1.00;;
2602;SDS011;1311;47.966;7.958;2023-04-15T04:20:36;0.90;;;0.90;;
2602;SDS011;1311;47.966;7.958;2023-04-15T04:23:03;2.67;;;1.13;;
2602;SDS011;1311;47.966;7.958;2023-04-15T04:25:30;2.03;;;1.10;;
2602;SDS011;1311;47.966;7.958;2023-04-15T04:27:57;1.27;;;0.80;;
2602;SDS011;1311;47.966;7.958;2023-04-15T04:30:23;2.70;;;0.80;;
2602;SDS011;1311;47.966;7.958;2023-04-15T04:32:50;0.97;;;0.90;;
2602;SDS011;1311;47.966;7.958;2023-04-15T04:35:18;2.40;;;1.00;;
2602;SDS011;1311;47.966;7.958;2023-04-15T04:37:45;2.50;;;1.20;;
2602;SDS011;1311;47.966;7.958;2023-04-15T04:40:12;2.20;;;1.10;;
2602;SDS011;1311;47.966;7.958;2023-04-15T04:42:39;1.70;;;0.97;;
2602;SDS011;1311;47.966;7.958;2023-04-15T04:45:06;1.00;;;0.90;;
2602;SDS011;1311;47.966;7.958;2023-04-15T04:47:34;2.77;;;1.57;;
2602;SDS011;1311;47.966;7.958;2023-04-15T04:50:00;4.07;;;1.10;;
2602;SDS011;1311;47.966;7.958;2023-04-15T04:52:28;2.20;;;1.00;;
2602;SDS011;1311;47.966;7.958;2023-04-15T04:54:55;1.03;;;0.93;;
2602;SDS011;1311;47.966;7.958;2023-04-15T04:57:22;4.60;;;1.13;;
2602;SDS011;1311;47.966;7.958;2023-04-15T04:59:49;1.20;;;1.10;;
2602;SDS011;1311;47.966;7.958;2023-04-15T05:02:15;2.20;;;1.30;;
2602;SDS011;1311;47.966;7.958;2023-04-15T05:04:42;1.07;;;0.80;;
2602;SDS011;1311;47.966;7.958;2023-04-15T05:07:09;0.93;;;0.73;;
2602;SDS011;1311;47.966;7.958;2023-04-15T05:09:37;0.80;;;0.80;;
2602;SDS011;1311;47.966;7.958;2023-04-15T05:12:04;3.23;;;1.27;;
2602;SDS011;1311;47.966;7.958;2023-04-15T05:14:31;1.70;;;1.20;;
2602;SDS011;1311;47.966;7.958;2023-04-15T05:16:58;1.03;;;0.93;;
2602;SDS011;1311;47.966;7.958;2023-04-15T05:19:25;2.43;;;1.20;;
2602;SDS011;1311;47.966;7.958;2023-04-15T05:21:51;3.40;;;1.60;;
2602;SDS011;1311;47.966;7.958;2023-04-15T05:24:18;3.13;;;2.20;;
2602;SDS011;1311;47.966;7.958;2023-04-15T05:26:46;2.37;;;1.63;;
2602;SDS011;1311;47.966;7.958;2023-04-15T05:29:13;2.93;;;2.30;;
2602;SDS011;1311;47.966;7.958;2023-04-15T05:31:40;4.60;;;2.10;;
2602;SDS011;1311;47.966;7.958;2023-04-15T05:34:07;2.37;;;1.90;;
2602;SDS011;1311;47.966;7.958;2023-04-15T05:36:34;2.10;;;1.67;;
2602;SDS011;1311;47.966;7.958;2023-04-15T05:39:01;4.73;;;2.00;;
2602;SDS011;1311;47.966;7.958;2023-04-15T05:41:28;2.90;;;1.50;;
2602;SDS011;1311;47.966;7.958;2023-04-15T05:43:56;2.10;;;1.40;;
2602;SDS011;1311;47.966;7.958;2023-04-15T05:46:23;1.53;;;1.13;;
2602;SDS011;1311;47.966;7.958;2023-04-15T05:48:50;1.40;;;1.30;;
2602;SDS011;1311;47.966;7.958;2023-04-15T05:51:17;2.43;;;1.20;;
2602;SDS011;1311;47.966;7.958;2023-04-15T05:53:43;2.13;;;1.23;;
2602;SDS011;1311;47.966;7.958;2023-04-15T05:56:10;1.40;;;1.30;;
2602;SDS011;1311;47.966;7.958;2023-04-15T05:58:37;1.20;;;1.10;;
2602;SDS011;1311;47.966;7.958;2023-04-15T06:01:05;1.40;;;1.07;;
2602;SDS011;1311;47.966;7.958;2023-04-15T06:03:32;2.40;;;1.13;;
2602;SDS011;1311;47.966;7.958;2023-04-15T06:05:59;0.93;;;0.80;;
2602;SDS011;1311;47.966;7.958;2023-04-15T06:08:26;1.70;;;1.20;;
2602;SDS011;1311;47.966;7.958;2023-04-15T06:10:53;2.23;;;1.20;;
2602;SDS011;1311;47.966;7.958;2023-04-15T06:13:19;2.20;;;1.40;;
2602;SDS011;1311;47.966;7.958;2023-04-15T06:15:46;2.20;;;1.60;;
2602;SDS011;1311;47.966;7.958;2023-04-15T06:18:14;1.97;;;1.60;;
2602;SDS011;1311;47.966;7.958;2023-04-15T06:20:41;1.83;;;1.70;;
2602;SDS011;1311;47.966;7.958;2023-04-15T06:23:08;2.60;;;2.13;;
2602;SDS011;1311;47.966;7.958;2023-04-15T06:25:35;1.57;;;1.20;;
2602;SDS011;1311;47.966;7.958;2023-04-15T06:28:02;1.27;;;1.03;;
2602;SDS011;1311;47.966;7.958;2023-04-15T06:30:29;2.60;;;1.57;;
2602;SDS011;1311;47.966;7.958;2023-04-15T06:32:55;2.70;;;1.47;;
2602;SDS011;1311;47.966;7.958;2023-04-15T06:35:24;2.40;;;1.60;;
2602;SDS011;1311;47.966;7.958;2023-04-15T06:37:51;1.87;;;0.90;;
2602;SDS011;1311;47.966;7.958;2023-04-15T06:40:18;2.63;;;1.30;;
2602;SDS011;1311;47.966;7.958;2023-04-15T06:42:44;1.97;;;1.40;;
2602;SDS011;1311;47.966;7.958;2023-04-15T06:45:11;2.03;;;1.60;;
2602;SDS011;1311;47.966;7.958;2023-04-15T06:47:38;3.13;;;1.93;;
2602;SDS011;1311;47.966;7.958;2023-04-15T06:50:06;3.00;;;1.80;;
2602;SDS011;1311;47.966;7.958;2023-04-15T06:52:35;3.40;;;1.90;;
2602;SDS011;1311;47.966;7.958;2023-04-15T06:55:02;2.63;;;1.50;;
2602;SDS011;1311;47.966;7.958;2023-04-15T06:57:29;3.00;;;1.73;;
2602;SDS011;1311;47.966;7.958;2023-04-15T06:59:56;1.77;;;1.67;;
2602;SDS011;1311;47.966;7.958;2023-04-15T07:02:23;4.73;;;2.13;;
2602;SDS011;1311;47.966;7.958;2023-04-15T07:04:49;3.33;;;1.97;;
2602;SDS011;1311;47.966;7.958;2023-04-15T07:07:16;2.90;;;1.67;;
2602;SDS011;1311;47.966;7.958;2023-04-15T07:09:44;4.10;;;2.60;;
2602;SDS011;1311;47.966;7.958;2023-04-15T07:12:11;7.50;;;2.60;;
2602;SDS011;1311;47.966;7.958;2023-04-15T07:14:38;2.50;;;2.20;;
2602;SDS011;1311;47.966;7.958;2023-04-15T07:17:04;4.13;;;2.60;;
2602;SDS011;1311;47.966;7.958;2023-04-15T07:19:31;3.53;;;2.60;;
2602;SDS011;1311;47.966;7.958;2023-04-15T07:21:58;5.50;;;2.23;;
2602;SDS011;1311;47.966;7.958;2023-04-15T07:24:25;2.20;;;2.00;;
2602;SDS011;1311;47.966;7.958;2023-04-15T07:26:54;2.73;;;2.30;;
2602;SDS011;1311;47.966;7.958;2023-04-15T07:29:21;2.07;;;1.73;;
2602;SDS011;1311;47.966;7.958;2023-04-15T07:31:48;2.70;;;1.80;;
2602;SDS011;1311;47.966;7.958;2023-04-15T07:34:15;2.60;;;1.70;;
2602;SDS011;1311;47.966;7.958;2023-04-15T07:36:42;2.43;;;2.03;;
2602;SDS011;1311;47.966;7.958;2023-04-15T07:39:10;3.20;;;1.80;;
2602;SDS011;1311;47.966;7.958;2023-04-15T07:41:36;1.90;;;1.77;;
2602;SDS011;1311;47.966;7.958;2023-04-15T07:44:05;2.93;;;1.50;;
2602;SDS011;1311;47.966;7.958;2023-04-15T07:46:32;1.97;;;1.07;;
2602;SDS011;1311;47.966;7.958;2023-04-15T07:48:58;1.93;;;1.43;;
2602;SDS011;1311;47.966;7.958;2023-04-15T07:51:25;3.07;;;1.27;;
2602;SDS011;1311;47.966;7.958;2023-04-15T07:53:53;1.90;;;1.50;;
2602;SDS011;1311;47.966;7.958;2023-04-15T07:56:20;1.83;;;1.10;;
2602;SDS011;1311;47.966;7.958;2023-04-15T07:58:47;1.30;;;1.20;;
2602;SDS011;1311;47.966;7.958;2023-04-15T08:01:15;2.17;;;1.23;;
2602;SDS011;1311;47.966;7.958;2023-04-15T08:03:41;1.20;;;1.00;;
2602;SDS011;1311;47.966;7.958;2023-04-15T08:06:08;2.00;;;1.50;;
2602;SDS011;1311;47.966;7.958;2023-04-15T08:08:35;2.30;;;1.50;;
2602;SDS011;1311;47.966;7.958;2023-04-15T08:11:01;1.93;;;1.50;;
2602;SDS011;1311;47.966;7.958;2023-04-15T08:13:28;1.80;;;1.30;;
2602;SDS011;1311;47.966;7.958;2023-04-15T08:18:40;3.47;;;1.40;;
2602;SDS011;1311;47.966;7.958;2023-04-15T08:21:06;6.73;;;1.70;;
2602;SDS011;1311;47.966;7.958;2023-04-15T08:23:33;1.87;;;1.13;;
2602;SDS011;1311;47.966;7.958;2023-04-15T08:26:00;3.83;;;2.40;;
2602;SDS011;1311;47.966;7.958;2023-04-15T08:28:27;1.80;;;1.50;;
2602;SDS011;1311;47.966;7.958;2023-04-15T08:30:54;2.50;;;1.67;;
2602;SDS011;1311;47.966;7.958;2023-04-15T08:33:20;4.70;;;1.20;;
2602;SDS011;1311;47.966;7.958;2023-04-15T08:35:48;2.23;;;1.20;;
2602;SDS011;1311;47.966;7.958;2023-04-15T08:38:15;1.40;;;1.30;;
2602;SDS011;1311;47.966;7.958;2023-04-15T08:40:43;5.10;;;1.60;;
2602;SDS011;1311;47.966;7.958;2023-04-15T08:43:11;3.20;;;1.50;;
2602;SDS011;1311;47.966;7.958;2023-04-15T08:45:43;2.10;;;1.57;;
2602;SDS011;1311;47.966;7.958;2023-04-15T08:48:12;1.87;;;1.27;;
2602;SDS011;1311;47.966;7.958;2023-04-15T08:50:40;3.47;;;1.83;;
2602;SDS011;1311;47.966;7.958;2023-04-15T08:53:09;3.13;;;1.60;;
2602;SDS011;1311;47.966;7.958;2023-04-15T08:55:38;1.73;;;1.60;;
2602;SDS011;1311;47.966;7.958;2023-04-15T08:58:09;1.57;;;1.40;;
2602;SDS011;1311;47.966;7.958;2023-04-15T09:00:37;1.40;;;1.30;;
2602;SDS011;1311;47.966;7.958;2023-04-15T09:03:04;1.50;;;1.40;;
2602;SDS011;1311;47.966;7.958;2023-04-15T09:05:32;2.30;;;1.40;;
2602;SDS011;1311;47.966;7.958;2023-04-15T09:07:59;3.77;;;2.00;;
2602;SDS011;1311;47.966;7.958;2023-04-15T09:10:28;3.10;;;1.30;;
2602;SDS011;1311;47.966;7.958;2023-04-15T09:12:55;2.07;;;1.50;;
2602;SDS011;1311;47.966;7.958;2023-04-15T09:15:22;3.33;;;1.50;;
2602;SDS011;1311;47.966;7.958;2023-04-15T09:17:51;2.23;;;1.07;;
2602;SDS011;1311;47.966;7.958;2023-04-15T09:20:18;2.10;;;1.50;;
2602;SDS011;1311;47.966;7.958;2023-04-15T09:22:46;1.67;;;1.30;;
2602;SDS011;1311;47.966;7.958;2023-04-15T09:25:27;2.17;;;1.70;;
2602;SDS011;1311;47.966;7.958;2023-04-15T09:27:55;1.50;;;1.40;;
2602;SDS011;1311;47.966;7.958;2023-04-15T09:30:23;2.07;;;1.80;;
2602;SDS011;1311;47.966;7.958;2023-04-15T09:32:50;4.50;;;1.50;;
2602;SDS011;1311;47.966;7.958;2023-04-15T09:35:18;2.50;;;2.20;;
2602;SDS011;1311;47.966;7.958;2023-04-15T09:37:45;1.57;;;1.30;;
2602;SDS011;1311;47.966;7.958;2023-04-15T09:40:12;1.93;;;1.40;;
2602;SDS011;1311;47.966;7.958;2023-04-15T09:42:54;3.23;;;1.70;;
2602;SDS011;1311;47.966;7.958;2023-04-15T09:45:21;2.40;;;1.40;;
2602;SDS011;1311;47.966;7.958;2023-04-15T09:47:49;1.33;;;1.23;;
2602;SDS011;1311;47.966;7.958;2023-04-15T09:50:17;2.10;;;1.60;;
2602;SDS011;1311;47.966;7.958;2023-04-15T09:52:44;2.20;;;1.57;;
2602;SDS011;1311;47.966;7.958;2023-04-15T09:55:12;1.80;;;1.40;;
2602;SDS011;1311;47.966;7.958;2023-04-15T09:57:41;1.53;;;1.43;;
2602;SDS011;1311;47.966;7.958;2023-04-15T10:00:10;2.90;;;1.70;;
2602;SDS011;1311;47.966;7.958;2023-04-15T10:02:38;2.60;;;1.40;;
2602;SDS011;1311;47.966;7.958;2023-04-15T10:05:06;3.53;;;1.90;;
2602;SDS011;1311;47.966;7.958;2023-04-15T10:07:36;3.83;;;1.50;;
2602;SDS011;1311;47.966;7.958;2023-04-15T10:10:06;1.30;;;1.20;;
2602;SDS011;1311;47.966;7.958;2023-04-15T10:12:34;4.63;;;1.70;;
2602;SDS011;1311;47.966;7.958;2023-04-15T10:15:03;2.00;;;1.60;;
2602;SDS011;1311;47.966;7.958;2023-04-15T10:17:33;2.60;;;1.87;;
2602;SDS011;1311;47.966;7.958;2023-04-15T10:20:01;2.50;;;1.47;;
2602;SDS011;1311;47.966;7.958;2023-04-15T10:22:29;1.70;;;1.40;;
2602;SDS011;1311;47.966;7.958;2023-04-15T10:24:58;2.23;;;1.70;;
2602;SDS011;1311;47.966;7.958;2023-04-15T10:27:26;2.63;;;2.00;;
2602;SDS011;1311;47.966;7.958;2023-04-15T10:29:53;2.50;;;1.60;;
2602;SDS011;1311;47.966;7.958;2023-04-15T10:32:22;2.27;;;1.80;;
2602;SDS011;1311;47.966;7.958;2023-04-15T10:34:52;2.50;;;1.90;;
2602;SDS011;1311;47.966;7.958;2023-04-15T10:37:20;11.20;;;2.30;;
2602;SDS011;1311;47.966;7.958;2023-04-15T10:39:47;2.30;;;1.80;;
2602;SDS011;1311;47.966;7.958;2023-04-15T10:42:15;2.50;;;1.53;;
2602;SDS011;1311;47.966;7.958;2023-04-15T10:44:43;2.33;;;1.90;;
2602;SDS011;1311;47.966;7.958;2023-04-15T10:47:14;1.93;;;1.67;;
2602;SDS011;1311;47.966;7.958;2023-04-15T10:49:45;3.50;;;1.83;;
2602;SDS011;1311;47.966;7.958;2023-04-15T10:52:15;2.37;;;1.60;;
2602;SDS011;1311;47.966;7.958;2023-04-15T10:54:43;2.50;;;1.57;;
2602;SDS011;1311;47.966;7.958;2023-04-15T10:57:14;2.03;;;1.40;;
2602;SDS011;1311;47.966;7.958;2023-04-15T11:00:00;3.30;;;1.60;;
2602;SDS011;1311;47.966;7.958;2023-04-15T11:02:37;1.40;;;1.30;;
2602;SDS011;1311;47.966;7.958;2023-04-15T11:05:08;3.10;;;1.57;;
2602;SDS011;1311;47.966;7.958;2023-04-15T11:07:38;2.60;;;1.70;;
2602;SDS011;1311;47.966;7.958;2023-04-15T11:13:14;2.30;;;1.60;;
2602;SDS011;1311;47.966;7.958;2023-04-15T11:15:43;3.03;;;1.87;;
2602;SDS011;1311;47.966;7.958;2023-04-15T11:18:11;2.30;;;1.70;;
2602;SDS011;1311;47.966;7.958;2023-04-15T11:20:41;2.63;;;1.57;;
2602;SDS011;1311;47.966;7.958;2023-04-15T11:23:11;2.27;;;1.77;;
2602;SDS011;1311;47.966;7.958;2023-04-15T11:25:41;2.00;;;1.80;;
2602;SDS011;1311;47.966;7.958;2023-04-15T11:28:08;2.60;;;2.40;;
2602;SDS011;1311;47.966;7.958;2023-04-15T11:30:37;2.60;;;2.20;;
2602;SDS011;1311;47.966;7.958;2023-04-15T11:33:05;2.63;;;2.17;;
2602;SDS011;1311;47.966;7.958;2023-04-15T11:35:33;3.80;;;2.20;;
2602;SDS011;1311;47.966;7.958;2023-04-15T11:38:01;4.73;;;2.00;;
2602;SDS011;1311;47.966;7.958;2023-04-15T11:40:30;3.33;;;2.70;;
2602;SDS011;1311;47.966;7.958;2023-04-15T11:43:03;4.07;;;2.20;;
2602;SDS011;1311;47.966;7.958;2023-04-15T11:45:34;2.90;;;2.10;;
2602;SDS011;1311;47.966;7.958;2023-04-15T11:48:05;8.60;;;6.17;;
2602;SDS011;1311;47.966;7.958;2023-04-15T11:50:33;9.57;;;7.20;;
2602;SDS011;1311;47.966;7.958;2023-04-15T11:53:01;3.67;;;3.33;;
2602;SDS011;1311;47.966;7.958;2023-04-15T11:55:30;3.20;;;2.67;;
2602;SDS011;1311;47.966;7.958;2023-04-15T11:58:07;4.87;;;2.70;;
2602;SDS011;1311;47.966;7.958;2023-04-15T12:00:36;4.60;;;2.83;;
2602;SDS011;1311;47.966;7.958;2023-04-15T12:03:11;5.03;;;3.33;;
2602;SDS011;1311;47.966;7.958;2023-04-15T12:11:39;5.73;;;2.67;;
2602;SDS011;1311;47.966;7.958;2023-04-15T12:14:09;3.70;;;2.73;;
2602;SDS011;1311;47.966;7.958;2023-04-15T12:16:47;4.23;;;2.80;;
2602;SDS011;1311;47.966;7.958;2023-04-15T12:19:16;2.43;;;2.20;;
2602;SDS011;1311;47.966;7.958;2023-04-15T12:21:46;2.70;;;2.50;;
2602;SDS011;1311;47.966;7.958;2023-04-15T12:24:13;3.23;;;2.60;;
2602;SDS011;1311;47.966;7.958;2023-04-15T12:26:45;3.10;;;2.80;;
2602;SDS011;1311;47.966;7.958;2023-04-15T12:29:14;5.37;;;3.20;;
2602;SDS011;1311;47.966;7.958;2023-04-15T12:31:48;3.77;;;3.20;;
2602;SDS011;1311;47.966;7.958;2023-04-15T12:34:16;3.57;;;2.77;;
2602;SDS011;1311;47.966;7.958;2023-04-15T12:36:45;2.50;;;2.30;;
2602;SDS011;1311;47.966;7.958;2023-04-15T12:39:12;3.57;;;3.13;;
2602;SDS011;1311;47.966;7.958;2023-04-15T12:41:38;3.20;;;2.63;;
2602;SDS011;1311;47.966;7.958;2023-04-15T12:44:07;4.03;;;3.20;;
2602;SDS011;1311;47.966;7.958;2023-04-15T12:46:34;4.63;;;3.10;;
2602;SDS011;1311;47.966;7.958;2023-04-15T12:49:01;4.00;;;2.87;;
2602;SDS011;1311;47.966;7.958;2023-04-15T12:51:28;4.80;;;2.83;;
2602;SDS011;1311;47.966;7.958;2023-04-15T12:53:55;15.37;;;10.17;;
2602;SDS011;1311;47.966;7.958;2023-04-15T12:56:23;5.20;;;3.83;;
2602;SDS011;1311;47.966;7.958;2023-04-15T12:58:50;4.30;;;2.77;;
2602;SDS011;1311;47.966;7.958;2023-04-15T13:01:19;4.33;;;2.70;;
2602;SDS011;1311;47.966;7.958;2023-04-15T13:03:46;4.93;;;2.87;;
2602;SDS011;1311;47.966;7.958;2023-04-15T13:06:14;7.50;;;4.57;;
2602;SDS011;1311;47.966;7.958;2023-04-15T13:08:41;27.97;;;14.63;;
2602;SDS011;1311;47.966;7.958;2023-04-15T13:11:09;34.33;;;15.97;;
2602;SDS011;1311;47.966;7.958;2023-04-15T13:13:36;13.03;;;6.80;;
2602;SDS011;1311;47.966;7.958;2023-04-15T13:16:03;19.70;;;10.70;;
2602;SDS011;1311;47.966;7.958;2023-04-15T13:18:32;34.20;;;16.83;;
2602;SDS011;1311;47.966;7.958;2023-04-15T13:21:00;12.37;;;8.10;;
2602;SDS011;1311;47.966;7.958;2023-04-15T13:23:27;7.83;;;4.57;;
2602;SDS011;1311;47.966;7.958;2023-04-15T13:25:54;11.93;;;7.87;;
2602;SDS011;1311;47.966;7.958;2023-04-15T13:28:21;13.17;;;7.47;;
2602;SDS011;1311;47.966;7.958;2023-04-15T13:30:48;9.77;;;6.03;;
2602;SDS011;1311;47.966;7.958;2023-04-15T13:33:15;9.33;;;4.87;;
2602;SDS011;1311;47.966;7.958;2023-04-15T13:35:43;32.23;;;14.60;;
2602;SDS011;1311;47.966;7.958;2023-04-15T13:38:10;12.20;;;6.73;;
2602;SDS011;1311;47.966;7.958;2023-04-15T13:40:38;11.60;;;6.67;;
2602;SDS011;1311;47.966;7.958;2023-04-15T13:43:05;3.60;;;2.80;;
2602;SDS011;1311;47.966;7.958;2023-04-15T13:45:32;3.93;;;1.90;;
2602;SDS011;1311;47.966;7.958;2023-04-15T13:47:59;2.70;;;1.90;;
2602;SDS011;1311;47.966;7.958;2023-04-15T13:50:26;2.30;;;2.10;;
2602;SDS011;1311;47.966;7.958;2023-04-15T13:52:55;4.97;;;2.57;;
2602;SDS011;1311;47.966;7.958;2023-04-15T13:55:21;9.10;;;5.43;;
2602;SDS011;1311;47.966;7.958;2023-04-15T13:57:48;3.73;;;2.43;;
2602;SDS011;1311;47.966;7.958;2023-04-15T14:00:16;2.43;;;2.23;;
2602;SDS011;1311;47.966;7.958;2023-04-15T14:02:42;6.07;;;2.00;;
2602;SDS011;1311;47.966;7.958;2023-04-15T14:05:09;4.80;;;2.70;;
2602;SDS011;1311;47.966;7.958;2023-04-15T14:07:39;6.87;;;3.97;;
2602;SDS011;1311;47.966;7.958;2023-04-15T14:10:08;6.00;;;3.30;;
2602;SDS011;1311;47.966;7.958;2023-04-15T14:12:35;11.13;;;4.80;;
2602;SDS011;1311;47.966;7.958;2023-04-15T14:15:01;3.73;;;2.43;;
2602;SDS011;1311;47.966;7.958;2023-04-15T14:17:29;3.60;;;2.43;;
2602;SDS011;1311;47.966;7.958;2023-04-15T14:19:55;6.00;;;3.30;;
2602;SDS011;1311;47.966;7.958;2023-04-15T14:22:22;3.87;;;2.67;;
2602;SDS011;1311;47.966;7.958;2023-04-15T14:24:49;4.53;;;3.57;;
2602;SDS011;1311;47.966;7.958;2023-04-15T14:27:18;3.73;;;3.20;;
2602;SDS011;1311;47.966;7.958;2023-04-15T14:29:45;6.17;;;3.30;;
2602;SDS011;1311;47.966;7.958;2023-04-15T14:32:12;4.77;;;3.13;;
2602;SDS011;1311;47.966;7.958;2023-04-15T14:34:39;3.50;;;3.10;;
2602;SDS011;1311;47.966;7.958;2023-04-15T14:37:06;5.00;;;3.27;;
2602;SDS011;1311;47.966;7.958;2023-04-15T14:39:32;6.23;;;3.10;;
2602;SDS011;1311;47.966;7.958;2023-04-15T14:41:59;4.63;;;3.40;;
2602;SDS011;1311;47.966;7.958;2023-04-15T14:44:27;3.33;;;2.40;;
2602;SDS011;1311;47.966;7.958;2023-04-15T14:46:54;2.97;;;2.70;;
2602;SDS011;1311;47.966;7.958;2023-04-15T14:49:21;4.10;;;2.67;;
2602;SDS011;1311;47.966;7.958;2023-04-15T14:51:48;5.57;;;2.60;;
2602;SDS011;1311;47.966;7.958;2023-04-15T14:54:14;3.70;;;3.37;;
2602;SDS011;1311;47.966;7.958;2023-04-15T14:56:41;2.90;;;2.13;;
2602;SDS011;1311;47.966;7.958;2023-04-15T14:59:08;3.00;;;2.33;;
2602;SDS011;1311;47.966;7.958;2023-04-15T15:01:36;3.40;;;2.00;;
2602;SDS011;1311;47.966;7.958;2023-04-15T15:04:03;5.50;;;1.90;;
2602;SDS011;1311;47.966;7.958;2023-04-15T15:06:30;3.90;;;2.03;;
2602;SDS011;1311;47.966;7.958;2023-04-15T15:08:57;4.20;;;2.10;;
2602;SDS011;1311;47.966;7.958;2023-04-15T15:11:25;6.17;;;2.70;;
2602;SDS011;1311;47.966;7.958;2023-04-15T15:13:52;2.90;;;2.30;;
2602;SDS011;1311;47.966;7.958;2023-04-15T15:16:19;3.73;;;2.30;;
2602;SDS011;1311;47.966;7.958;2023-04-15T15:18:48;3.20;;;1.70;;
2602;SDS011;1311;47.966;7.958;2023-04-15T15:21:15;2.70;;;2.00;;
2602;SDS011;1311;47.966;7.958;2023-04-15T15:23:42;3.63;;;1.90;;
2602;SDS011;1311;47.966;7.958;2023-04-15T15:26:09;2.80;;;1.73;;
2602;SDS011;1311;47.966;7.958;2023-04-15T15:28:35;2.10;;;1.67;;